sensor_id;sensor_type;location;lat;lon;timestamp;pressure;altitude;pressure_sealevel;temperature;humidity
19236;BME280;9752;54.270;12.470;2022-10-20T00:03:19;103055.88;;;-0.05;100.00
19236;BME280;9752;54.270;12.470;2022-10-20T00:08:22;103055.44;;;-0.08;100.00
19236;BME280;9752;54.270;12.470;2022-10-20T00:13:24;103062.41;;;-0.07;100.00
19236;BME280;9752;54.270;12.470;2022-10-20T00:18:27;103058.78;;;-0.15;100.00
19236;BME280;9752;54.270;12.470;2022-10-20T00:23:30;103062.00;;;-0.34;100.00
19236;BME280;9752;54.270;12.470;2022-10-20T00:28:32;103055.84;;;-0.42;100.00
19236;BME280;9752;54.270;12.470;2022-10-20T00:33:34;103066.19;;;-0.35;100.00
19236;BME280;9752;54.270;12.470;2022-10-20T00:38:37;103067.25;;;-0.27;100.00
19236;BME280;9752;54.270;12.470;2022-10-20T00:43:41;103060.97;;;-0.05;100.00
19236;BME280;9752;54.270;12.470;2022-10-20T00:48:46;103050.56;;;0.12;100.00
19236;BME280;9752;54.270;12.470;2022-10-20T00:53:51;103041.34;;;0.07;100.00
19236;BME280;9752;54.270;12.470;2022-10-20T00:58:55;103037.06;;;0.13;100.00
19236;BME280;9752;54.270;12.470;2022-10-20T01:03:57;103027.81;;;0.13;100.00
19236;BME280;9752;54.270;12.470;2022-10-20T01:09:01;103017.16;;;0.29;100.00
19236;BME280;9752;54.270;12.470;2022-10-20T01:14:14;103011.00;;;0.21;100.00
19236;BME280;9752;54.270;12.470;2022-10-20T01:19:58;103013.41;;;0.14;100.00
19236;BME280;9752;54.270;12.470;2022-10-20T01:25:15;103005.84;;;0.08;100.00
19236;BME280;9752;54.270;12.470;2022-10-20T01:30:21;103011.16;;;0.10;100.00
19236;BME280;9752;54.270;12.470;2022-10-20T01:35:34;103004.50;;;0.05;100.00
19236;BME280;9752;54.270;12.470;2022-10-20T01:40:42;103013.06;;;0.05;100.00
19236;BME280;9752;54.270;12.470;2022-10-20T01:45:49;103006.59;;;0.02;100.00
19236;BME280;9752;54.270;12.470;2022-10-20T01:50:53;102994.56;;;0.01;100.00
19236;BME280;9752;54.270;12.470;2022-10-20T01:55:56;102996.22;;;0.00;100.00
19236;BME280;9752;54.270;12.470;2022-10-20T02:01:08;102989.19;;;0.05;100.00
19236;BME280;9752;54.270;12.470;2022-10-20T02:06:20;102989.09;;;0.10;100.00
19236;BME280;9752;54.270;12.470;2022-10-20T02:11:28;102989.53;;;0.13;100.00
19236;BME280;9752;54.270;12.470;2022-10-20T02:16:36;102992.09;;;0.13;100.00
19236;BME280;9752;54.270;12.470;2022-10-20T02:21:40;102985.75;;;0.17;100.00
19236;BME280;9752;54.270;12.470;2022-10-20T02:26:42;102984.63;;;0.15;100.00
19236;BME280;9752;54.270;12.470;2022-10-20T02:31:46;102985.75;;;0.17;100.00
19236;BME280;9752;54.270;12.470;2022-10-20T02:36:48;102989.44;;;0.19;100.00
19236;BME280;9752;54.270;12.470;2022-10-20T02:41:49;102984.13;;;0.17;100.00
19236;BME280;9752;54.270;12.470;2022-10-20T02:46:52;102988.63;;;0.26;100.00
19236;BME280;9752;54.270;12.470;2022-10-20T02:51:54;102996.34;;;0.38;100.00
19236;BME280;9752;54.270;12.470;2022-10-20T02:56:56;102996.34;;;0.38;100.00
19236;BME280;9752;54.270;12.470;2022-10-20T03:01:59;102993.13;;;0.21;100.00
19236;BME280;9752;54.270;12.470;2022-10-20T03:07:01;102989.44;;;0.19;100.00
19236;BME280;9752;54.270;12.470;2022-10-20T03:12:03;102987.38;;;0.16;100.00
19236;BME280;9752;54.270;12.470;2022-10-20T03:17:06;102996.47;;;0.14;100.00
19236;BME280;9752;54.270;12.470;2022-10-20T03:22:08;103003.28;;;0.08;100.00
19236;BME280;9752;54.270;12.470;2022-10-20T03:27:09;102998.72;;;0.18;100.00
19236;BME280;9752;54.270;12.470;2022-10-20T03:32:12;103000.50;;;0.07;100.00
19236;BME280;9752;54.270;12.470;2022-10-20T03:37:14;103004.78;;;0.01;100.00
19236;BME280;9752;54.270;12.470;2022-10-20T03:42:16;102996.47;;;-0.04;100.00
19236;BME280;9752;54.270;12.470;2022-10-20T03:47:19;102996.41;;;0.02;100.00
19236;BME280;9752;54.270;12.470;2022-10-20T03:52:21;102992.09;;;0.13;100.00
19236;BME280;9752;54.270;12.470;2022-10-20T03:57:22;102985.13;;;0.12;100.00
19236;BME280;9752;54.270;12.470;2022-10-20T04:02:32;102978.69;;;0.09;100.00
19236;BME280;9752;54.270;12.470;2022-10-20T04:07:34;102968.25;;;0.07;100.00
19236;BME280;9752;54.270;12.470;2022-10-20T04:12:36;102979.19;;;0.06;100.00
19236;BME280;9752;54.270;12.470;2022-10-20T04:17:39;102974.09;;;0.06;100.00
19236;BME280;9752;54.270;12.470;2022-10-20T04:22:41;102965.69;;;-0.06;100.00
19236;BME280;9752;54.270;12.470;2022-10-20T04:27:42;102958.09;;;-0.11;100.00
19236;BME280;9752;54.270;12.470;2022-10-20T04:32:45;102952.78;;;-0.13;100.00
19236;BME280;9752;54.270;12.470;2022-10-20T04:37:47;102946.88;;;-0.06;100.00
19236;BME280;9752;54.270;12.470;2022-10-20T04:42:49;102948.16;;;-0.15;100.00
19236;BME280;9752;54.270;12.470;2022-10-20T04:47:52;102948.81;;;-0.11;100.00
19236;BME280;9752;54.270;12.470;2022-10-20T04:52:54;102944.63;;;-0.10;100.00
19236;BME280;9752;54.270;12.470;2022-10-20T04:57:55;102940.59;;;-0.21;100.00
19236;BME280;9752;54.270;12.470;2022-10-20T05:02:58;102937.63;;;-0.24;100.00
19236;BME280;9752;54.270;12.470;2022-10-20T05:08:00;102927.50;;;-0.30;100.00
19236;BME280;9752;54.270;12.470;2022-10-20T05:13:02;102919.22;;;-0.34;100.00
19236;BME280;9752;54.270;12.470;2022-10-20T05:18:05;102907.47;;;-0.40;100.00
19236;BME280;9752;54.270;12.470;2022-10-20T05:23:06;102909.81;;;-0.41;100.00
19236;BME280;9752;54.270;12.470;2022-10-20T05:28:08;102909.31;;;-0.38;100.00
19236;BME280;9752;54.270;12.470;2022-10-20T05:33:11;102912.50;;;-0.34;100.00
19236;BME280;9752;54.270;12.470;2022-10-20T05:38:13;102909.22;;;-0.33;100.00
19236;BME280;9752;54.270;12.470;2022-10-20T05:43:15;102922.72;;;-0.03;100.00
19236;BME280;9752;54.270;12.470;2022-10-20T05:48:18;102923.53;;;0.04;100.00
19236;BME280;9752;54.270;12.470;2022-10-20T05:53:20;102930.28;;;0.03;100.00
19236;BME280;9752;54.270;12.470;2022-10-20T05:58:21;102930.84;;;0.13;100.00
19236;BME280;9752;54.270;12.470;2022-10-20T06:03:24;102939.53;;;0.21;100.00
19236;BME280;9752;54.270;12.470;2022-10-20T06:08:28;102939.66;;;0.41;100.00
19236;BME280;9752;54.270;12.470;2022-10-20T06:13:31;102944.88;;;0.35;100.00
19236;BME280;9752;54.270;12.470;2022-10-20T06:18:34;102938.66;;;0.46;100.00
19236;BME280;9752;54.270;12.470;2022-10-20T06:23:38;102937.34;;;0.55;100.00
19236;BME280;9752;54.270;12.470;2022-10-20T06:28:40;102937.16;;;0.67;100.00
19236;BME280;9752;54.270;12.470;2022-10-20T06:33:43;102937.25;;;0.87;100.00
19236;BME280;9752;54.270;12.470;2022-10-20T06:38:45;102933.47;;;1.03;100.00
19236;BME280;9752;54.270;12.470;2022-10-20T06:43:47;102933.25;;;1.14;100.00
19236;BME280;9752;54.270;12.470;2022-10-20T06:48:50;102944.16;;;1.39;100.00
19236;BME280;9752;54.270;12.470;2022-10-20T06:53:52;102949.50;;;1.61;100.00
19236;BME280;9752;54.270;12.470;2022-10-20T06:58:55;102951.50;;;1.76;100.00
19236;BME280;9752;54.270;12.470;2022-10-20T07:03:59;102964.84;;;1.93;100.00
19236;BME280;9752;54.270;12.470;2022-10-20T07:09:03;102955.31;;;2.12;100.00
19236;BME280;9752;54.270;12.470;2022-10-20T07:14:05;102969.25;;;2.34;100.00
19236;BME280;9752;54.270;12.470;2022-10-20T07:19:08;102977.09;;;2.56;100.00
19236;BME280;9752;54.270;12.470;2022-10-20T07:24:10;102977.28;;;2.78;100.00
19236;BME280;9752;54.270;12.470;2022-10-20T07:29:12;102975.44;;;3.04;100.00
19236;BME280;9752;54.270;12.470;2022-10-20T07:34:17;102985.25;;;3.28;100.00
19236;BME280;9752;54.270;12.470;2022-10-20T07:39:22;102969.06;;;3.56;100.00
19236;BME280;9752;54.270;12.470;2022-10-20T07:44:24;102978.13;;;3.74;100.00
19236;BME280;9752;54.270;12.470;2022-10-20T07:49:27;102962.56;;;3.94;100.00
19236;BME280;9752;54.270;12.470;2022-10-20T07:54:29;102964.63;;;4.18;100.00
19236;BME280;9752;54.270;12.470;2022-10-20T07:59:31;102959.50;;;4.40;100.00
19236;BME280;9752;54.270;12.470;2022-10-20T08:04:34;102962.97;;;4.55;100.00
19236;BME280;9752;54.270;12.470;2022-10-20T08:09:36;102953.97;;;4.73;100.00
19236;BME280;9752;54.270;12.470;2022-10-20T08:14:37;102948.44;;;4.84;100.00
19236;BME280;9752;54.270;12.470;2022-10-20T08:19:40;102943.97;;;5.04;100.00
19236;BME280;9752;54.270;12.470;2022-10-20T08:24:42;102944.84;;;5.19;100.00
19236;BME280;9752;54.270;12.470;2022-10-20T08:29:44;102945.69;;;5.34;100.00
19236;BME280;9752;54.270;12.470;2022-10-20T08:34:47;102957.22;;;5.52;100.00
19236;BME280;9752;54.270;12.470;2022-10-20T08:39:48;102949.44;;;5.59;100.00
19236;BME280;9752;54.270;12.470;2022-10-20T08:44:53;102937.22;;;5.73;100.00
19236;BME280;9752;54.270;12.470;2022-10-20T08:49:58;102928.84;;;5.90;100.00
19236;BME280;9752;54.270;12.470;2022-10-20T08:55:03;102917.94;;;5.99;100.00
19236;BME280;9752;54.270;12.470;2022-10-20T09:00:13;102928.19;;;6.30;100.00
19236;BME280;9752;54.270;12.470;2022-10-20T09:05:20;102903.28;;;6.37;100.00
19236;BME280;9752;54.270;12.470;2022-10-20T09:10:30;102875.56;;;6.67;100.00
19236;BME280;9752;54.270;12.470;2022-10-20T09:15:32;102859.25;;;6.91;100.00
19236;BME280;9752;54.270;12.470;2022-10-20T09:20:38;102852.56;;;7.09;100.00
19236;BME280;9752;54.270;12.470;2022-10-20T09:25:42;102851.56;;;7.15;100.00
19236;BME280;9752;54.270;12.470;2022-10-20T09:30:44;102817.09;;;7.39;100.00
19236;BME280;9752;54.270;12.470;2022-10-20T09:35:47;102803.75;;;7.68;100.00
19236;BME280;9752;54.270;12.470;2022-10-20T09:40:56;102776.66;;;7.89;100.00
19236;BME280;9752;54.270;12.470;2022-10-20T09:46:03;102746.75;;;8.17;100.00
19236;BME280;9752;54.270;12.470;2022-10-20T09:51:14;102704.41;;;8.42;100.00
19236;BME280;9752;54.270;12.470;2022-10-20T09:56:23;102664.25;;;8.54;100.00
19236;BME280;9752;54.270;12.470;2022-10-20T10:01:25;102621.28;;;8.82;100.00
19236;BME280;9752;54.270;12.470;2022-10-20T10:06:38;102583.47;;;9.02;100.00
19236;BME280;9752;54.270;12.470;2022-10-20T10:11:41;102544.19;;;8.97;100.00
19236;BME280;9752;54.270;12.470;2022-10-20T10:16:43;102512.72;;;9.20;100.00
19236;BME280;9752;54.270;12.470;2022-10-20T10:21:49;102474.44;;;9.26;100.00
19236;BME280;9752;54.270;12.470;2022-10-20T10:26:52;102456.47;;;9.47;100.00
19236;BME280;9752;54.270;12.470;2022-10-20T10:31:59;102416.13;;;9.59;100.00
19236;BME280;9752;54.270;12.470;2022-10-20T10:37:02;102386.41;;;9.74;100.00
19236;BME280;9752;54.270;12.470;2022-10-20T10:42:19;102370.09;;;9.75;100.00
19236;BME280;9752;54.270;12.470;2022-10-20T10:47:40;102348.84;;;9.80;100.00
19236;BME280;9752;54.270;12.470;2022-10-20T10:52:50;102321.63;;;9.74;100.00
19236;BME280;9752;54.270;12.470;2022-10-20T10:58:04;102322.72;;;9.87;100.00
19236;BME280;9752;54.270;12.470;2022-10-20T11:03:22;102297.50;;;10.25;100.00
19236;BME280;9752;54.270;12.470;2022-10-20T11:08:42;102269.53;;;10.42;100.00
19236;BME280;9752;54.270;12.470;2022-10-20T11:13:52;102258.72;;;10.68;100.00
19236;BME280;9752;54.270;12.470;2022-10-20T11:19:10;102243.94;;;10.77;100.00
19236;BME280;9752;54.270;12.470;2022-10-20T11:24:24;102233.28;;;10.84;100.00
19236;BME280;9752;54.270;12.470;2022-10-20T11:29:32;102234.16;;;10.85;100.00
19236;BME280;9752;54.270;12.470;2022-10-20T11:34:43;102222.53;;;10.69;100.00
19236;BME280;9752;54.270;12.470;2022-10-20T11:39:52;102225.13;;;10.80;100.00
19236;BME280;9752;54.270;12.470;2022-10-20T11:44:56;102208.94;;;11.04;100.00
19236;BME280;9752;54.270;12.470;2022-10-20T11:50:03;102199.66;;;11.18;100.00
19236;BME280;9752;54.270;12.470;2022-10-20T11:55:28;102189.16;;;11.17;100.00
19236;BME280;9752;54.270;12.470;2022-10-20T12:00:44;102185.72;;;11.28;100.00
19236;BME280;9752;54.270;12.470;2022-10-20T12:06:12;102177.38;;;11.32;100.00
19236;BME280;9752;54.270;12.470;2022-10-20T12:11:26;102157.16;;;11.50;100.00
19236;BME280;9752;54.270;12.470;2022-10-20T12:17:04;102159.31;;;11.33;100.00
19236;BME280;9752;54.270;12.470;2022-10-20T12:22:37;102145.78;;;11.38;100.00
19236;BME280;9752;54.270;12.470;2022-10-20T12:27:41;102152.69;;;11.59;100.00
19236;BME280;9752;54.270;12.470;2022-10-20T12:32:55;102140.34;;;11.57;100.00
19236;BME280;9752;54.270;12.470;2022-10-20T12:38:01;102131.38;;;11.75;100.00
19236;BME280;9752;54.270;12.470;2022-10-20T12:43:05;102136.88;;;11.68;100.00
19236;BME280;9752;54.270;12.470;2022-10-20T12:48:22;102113.38;;;11.32;100.00
19236;BME280;9752;54.270;12.470;2022-10-20T12:53:27;102098.25;;;11.39;100.00
19236;BME280;9752;54.270;12.470;2022-10-20T12:58:33;102082.97;;;11.31;100.00
19236;BME280;9752;54.270;12.470;2022-10-20T13:03:44;102075.00;;;11.18;100.00
19236;BME280;9752;54.270;12.470;2022-10-20T13:09:15;102063.31;;;11.23;100.00
19236;BME280;9752;54.270;12.470;2022-10-20T13:14:26;102059.69;;;11.21;100.00
19236;BME280;9752;54.270;12.470;2022-10-20T13:19:34;102038.97;;;11.11;100.00
19236;BME280;9752;54.270;12.470;2022-10-20T13:24:37;102028.78;;;11.02;100.00
19236;BME280;9752;54.270;12.470;2022-10-20T13:29:40;102037.38;;;11.13;100.00
19236;BME280;9752;54.270;12.470;2022-10-20T13:34:47;102028.53;;;11.33;100.00
19236;BME280;9752;54.270;12.470;2022-10-20T13:39:57;102028.66;;;11.35;100.00
19236;BME280;9752;54.270;12.470;2022-10-20T13:45:09;102026.94;;;11.23;100.00
19236;BME280;9752;54.270;12.470;2022-10-20T13:50:14;102030.69;;;11.27;100.00
19236;BME280;9752;54.270;12.470;2022-10-20T13:55:19;102010.56;;;11.24;100.00
19236;BME280;9752;54.270;12.470;2022-10-20T14:00:25;101999.50;;;11.27;100.00
19236;BME280;9752;54.270;12.470;2022-10-20T14:05:28;101974.50;;;11.17;100.00
19236;BME280;9752;54.270;12.470;2022-10-20T14:10:36;101988.06;;;11.25;100.00
19236;BME280;9752;54.270;12.470;2022-10-20T14:15:45;101985.16;;;11.32;100.00
19236;BME280;9752;54.270;12.470;2022-10-20T14:20:56;101972.97;;;11.31;100.00
19236;BME280;9752;54.270;12.470;2022-10-20T14:26:00;101967.97;;;11.22;100.00
19236;BME280;9752;54.270;12.470;2022-10-20T14:31:03;101964.81;;;11.26;100.00
19236;BME280;9752;54.270;12.470;2022-10-20T14:36:11;101959.56;;;11.03;100.00
19236;BME280;9752;54.270;12.470;2022-10-20T14:41:24;101955.47;;;10.94;100.00
19236;BME280;9752;54.270;12.470;2022-10-20T14:46:30;101958.00;;;10.83;100.00
19236;BME280;9752;54.270;12.470;2022-10-20T14:51:36;101952.81;;;10.83;100.00
19236;BME280;9752;54.270;12.470;2022-10-20T14:56:42;101959.63;;;10.59;100.00
19236;BME280;9752;54.270;12.470;2022-10-20T15:01:57;101961.47;;;10.17;100.00
19236;BME280;9752;54.270;12.470;2022-10-20T15:07:03;101965.31;;;9.90;100.00
19236;BME280;9752;54.270;12.470;2022-10-20T15:12:06;101951.38;;;9.67;100.00
19236;BME280;9752;54.270;12.470;2022-10-20T15:17:33;101940.41;;;9.49;100.00
19236;BME280;9752;54.270;12.470;2022-10-20T15:22:35;101930.34;;;9.32;100.00
19236;BME280;9752;54.270;12.470;2022-10-20T15:27:39;101916.44;;;9.52;100.00
19236;BME280;9752;54.270;12.470;2022-10-20T15:32:42;101908.84;;;9.33;100.00
19236;BME280;9752;54.270;12.470;2022-10-20T15:37:47;101880.03;;;8.97;100.00
19236;BME280;9752;54.270;12.470;2022-10-20T15:42:49;101870.81;;;8.70;100.00
19236;BME280;9752;54.270;12.470;2022-10-20T15:47:52;101863.59;;;8.56;100.00
19236;BME280;9752;54.270;12.470;2022-10-20T15:52:53;101856.16;;;8.30;100.00
19236;BME280;9752;54.270;12.470;2022-10-20T15:57:55;101863.44;;;8.05;100.00
19236;BME280;9752;54.270;12.470;2022-10-20T16:02:58;101877.72;;;7.91;100.00
19236;BME280;9752;54.270;12.470;2022-10-20T16:08:00;101867.72;;;7.75;100.00
19236;BME280;9752;54.270;12.470;2022-10-20T16:13:02;101873.53;;;7.72;100.00
19236;BME280;9752;54.270;12.470;2022-10-20T16:18:05;101868.69;;;7.37;100.00
19236;BME280;9752;54.270;12.470;2022-10-20T16:23:07;101864.50;;;7.29;100.00
19236;BME280;9752;54.270;12.470;2022-10-20T16:28:09;101864.31;;;7.17;100.00
19236;BME280;9752;54.270;12.470;2022-10-20T16:33:12;101854.09;;;7.19;100.00
19236;BME280;9752;54.270;12.470;2022-10-20T16:38:14;101861.44;;;6.95;100.00
19236;BME280;9752;54.270;12.470;2022-10-20T16:43:16;101868.53;;;6.79;100.00
19236;BME280;9752;54.270;12.470;2022-10-20T16:48:19;101865.75;;;6.86;100.00
19236;BME280;9752;54.270;12.470;2022-10-20T16:53:21;101862.97;;;6.93;100.00
19236;BME280;9752;54.270;12.470;2022-10-20T16:58:23;101871.69;;;6.85;100.00
19236;BME280;9752;54.270;12.470;2022-10-20T17:03:26;101859.59;;;6.75;100.00
19236;BME280;9752;54.270;12.470;2022-10-20T17:08:29;101856.41;;;6.78;100.00
19236;BME280;9752;54.270;12.470;2022-10-20T17:13:31;101861.03;;;6.91;100.00
19236;BME280;9752;54.270;12.470;2022-10-20T17:18:35;101850.06;;;6.74;100.00
19236;BME280;9752;54.270;12.470;2022-10-20T17:23:38;101823.94;;;6.80;100.00
19236;BME280;9752;54.270;12.470;2022-10-20T17:28:40;101827.69;;;6.83;100.00
19236;BME280;9752;54.270;12.470;2022-10-20T17:33:44;101816.31;;;6.62;100.00
19236;BME280;9752;54.270;12.470;2022-10-20T17:38:46;101812.56;;;6.78;100.00
19236;BME280;9752;54.270;12.470;2022-10-20T17:43:48;101808.41;;;6.70;100.00
19236;BME280;9752;54.270;12.470;2022-10-20T17:48:51;101817.38;;;6.64;100.00
19236;BME280;9752;54.270;12.470;2022-10-20T17:53:53;101800.06;;;6.63;100.00
19236;BME280;9752;54.270;12.470;2022-10-20T17:58:58;101793.47;;;6.76;100.00
19236;BME280;9752;54.270;12.470;2022-10-20T18:04:04;101783.38;;;6.69;100.00
19236;BME280;9752;54.270;12.470;2022-10-20T18:09:09;101770.78;;;6.72;100.00
19236;BME280;9752;54.270;12.470;2022-10-20T18:14:11;101762.59;;;6.67;100.00
19236;BME280;9752;54.270;12.470;2022-10-20T18:19:15;101755.34;;;6.63;100.00
19236;BME280;9752;54.270;12.470;2022-10-20T18:24:17;101744.75;;;6.60;100.00
19236;BME280;9752;54.270;12.470;2022-10-20T18:29:19;101735.28;;;6.50;100.00
19236;BME280;9752;54.270;12.470;2022-10-20T18:34:22;101716.13;;;6.57;100.00
19236;BME280;9752;54.270;12.470;2022-10-20T18:39:24;101721.84;;;6.63;100.00
19236;BME280;9752;54.270;12.470;2022-10-20T18:44:26;101720.44;;;6.67;100.00
19236;BME280;9752;54.270;12.470;2022-10-20T18:49:29;101733.00;;;6.72;100.00
19236;BME280;9752;54.270;12.470;2022-10-20T18:54:31;101726.84;;;6.61;100.00
19236;BME280;9752;54.270;12.470;2022-10-20T18:59:33;101721.13;;;6.74;100.00
19236;BME280;9752;54.270;12.470;2022-10-20T19:04:36;101719.41;;;6.64;100.00
19236;BME280;9752;54.270;12.470;2022-10-20T19:09:38;101715.16;;;6.65;100.00
19236;BME280;9752;54.270;12.470;2022-10-20T19:14:39;101708.31;;;6.65;100.00
19236;BME280;9752;54.270;12.470;2022-10-20T19:19:42;101707.41;;;6.65;100.00
19236;BME280;9752;54.270;12.470;2022-10-20T19:24:45;101706.72;;;6.57;100.00
19236;BME280;9752;54.270;12.470;2022-10-20T19:29:47;101710.69;;;6.54;100.00
19236;BME280;9752;54.270;12.470;2022-10-20T19:34:50;101710.78;;;6.45;100.00
19236;BME280;9752;54.270;12.470;2022-10-20T19:39:52;101710.53;;;6.33;100.00
19236;BME280;9752;54.270;12.470;2022-10-20T19:44:54;101695.84;;;6.32;100.00
19236;BME280;9752;54.270;12.470;2022-10-20T19:49:57;101699.13;;;6.21;100.00
19236;BME280;9752;54.270;12.470;2022-10-20T19:54:58;101696.78;;;6.05;100.00
19236;BME280;9752;54.270;12.470;2022-10-20T20:00:01;101702.78;;;5.86;100.00
19236;BME280;9752;54.270;12.470;2022-10-20T20:05:07;101686.16;;;5.74;100.00
19236;BME280;9752;54.270;12.470;2022-10-20T20:10:08;101695.41;;;5.81;100.00
19236;BME280;9752;54.270;12.470;2022-10-20T20:15:10;101690.06;;;5.88;100.00
19236;BME280;9752;54.270;12.470;2022-10-20T20:20:13;101677.75;;;5.94;100.00
19236;BME280;9752;54.270;12.470;2022-10-20T20:25:15;101669.88;;;6.01;100.00
19236;BME280;9752;54.270;12.470;2022-10-20T20:30:17;101666.66;;;6.04;100.00
19236;BME280;9752;54.270;12.470;2022-10-20T20:35:20;101671.81;;;6.04;100.00
19236;BME280;9752;54.270;12.470;2022-10-20T20:40:22;101661.34;;;6.02;100.00
19236;BME280;9752;54.270;12.470;2022-10-20T20:45:24;101657.88;;;6.02;100.00
19236;BME280;9752;54.270;12.470;2022-10-20T20:50:27;101661.34;;;6.02;100.00
19236;BME280;9752;54.270;12.470;2022-10-20T20:55:28;101656.34;;;6.04;100.00
19236;BME280;9752;54.270;12.470;2022-10-20T21:00:30;101658.16;;;6.05;100.00
19236;BME280;9752;54.270;12.470;2022-10-20T21:05:35;101652.88;;;6.03;100.00
19236;BME280;9752;54.270;12.470;2022-10-20T21:10:37;101650.81;;;5.91;100.00
19236;BME280;9752;54.270;12.470;2022-10-20T21:15:38;101645.84;;;5.83;100.00
19236;BME280;9752;54.270;12.470;2022-10-20T21:20:41;101641.03;;;5.78;100.00
19236;BME280;9752;54.270;12.470;2022-10-20T21:25:44;101633.50;;;5.71;100.00
19236;BME280;9752;54.270;12.470;2022-10-20T21:30:46;101632.19;;;5.65;100.00
19236;BME280;9752;54.270;12.470;2022-10-20T21:35:49;101628.19;;;5.69;100.00
19236;BME280;9752;54.270;12.470;2022-10-20T21:40:50;101623.78;;;5.77;100.00
19236;BME280;9752;54.270;12.470;2022-10-20T21:45:52;101621.47;;;5.80;100.00
19236;BME280;9752;54.270;12.470;2022-10-20T21:50:55;101620.25;;;5.85;100.00
19236;BME280;9752;54.270;12.470;2022-10-20T21:55:57;101610.97;;;5.96;100.00
19236;BME280;9752;54.270;12.470;2022-10-20T22:00:59;101608.06;;;6.01;100.00
19236;BME280;9752;54.270;12.470;2022-10-20T22:06:02;101600.00;;;6.07;100.00
19236;BME280;9752;54.270;12.470;2022-10-20T22:11:05;101600.34;;;6.20;100.00
19236;BME280;9752;54.270;12.470;2022-10-20T22:16:08;101605.53;;;6.31;100.00
19236;BME280;9752;54.270;12.470;2022-10-20T22:21:14;101587.91;;;6.35;100.00
19236;BME280;9752;54.270;12.470;2022-10-20T22:26:16;101590.13;;;6.41;100.00
19236;BME280;9752;54.270;12.470;2022-10-20T22:31:18;101590.41;;;6.44;100.00
19236;BME280;9752;54.270;12.470;2022-10-20T22:36:22;101583.34;;;6.52;100.00
19236;BME280;9752;54.270;12.470;2022-10-20T22:41:24;101574.22;;;6.55;100.00
19236;BME280;9752;54.270;12.470;2022-10-20T22:46:25;101559.44;;;6.63;100.00
19236;BME280;9752;54.270;12.470;2022-10-20T22:51:29;101557.41;;;6.69;100.00
19236;BME280;9752;54.270;12.470;2022-10-20T22:56:30;101547.75;;;6.77;100.00
19236;BME280;9752;54.270;12.470;2022-10-20T23:01:32;101554.50;;;6.85;100.00
19236;BME280;9752;54.270;12.470;2022-10-20T23:06:35;101552.69;;;6.94;100.00
19236;BME280;9752;54.270;12.470;2022-10-20T23:11:37;101541.25;;;7.01;100.00
19236;BME280;9752;54.270;12.470;2022-10-20T23:16:38;101534.31;;;7.10;100.00
19236;BME280;9752;54.270;12.470;2022-10-20T23:21:41;101523.34;;;7.13;100.00
19236;BME280;9752;54.270;12.470;2022-10-20T23:26:43;101528.34;;;7.11;100.00
19236;BME280;9752;54.270;12.470;2022-10-20T23:31:45;101527.47;;;7.11;100.00
19236;BME280;9752;54.270;12.470;2022-10-20T23:36:48;101510.44;;;7.13;100.00
19236;BME280;9752;54.270;12.470;2022-10-20T23:41:49;101515.97;;;7.07;100.00
19236;BME280;9752;54.270;12.470;2022-10-20T23:46:51;101521.50;;;6.91;100.00
19236;BME280;9752;54.270;12.470;2022-10-20T23:51:54;101516.19;;;6.79;100.00
19236;BME280;9752;54.270;12.470;2022-10-20T23:56:56;101520.69;;;6.72;100.00
